createdAt,value
2018-05-24T00:00:11.513Z,0
2018-05-24T00:01:12.034Z,0
2018-05-24T00:02:11.498Z,0
2018-05-24T00:03:12.310Z,0
2018-05-24T00:04:12.283Z,0
2018-05-24T00:05:12.277Z,0
2018-05-24T00:06:11.725Z,0
2018-05-24T00:07:12.284Z,0
2018-05-24T00:08:12.254Z,0
2018-05-24T00:09:11.990Z,0
2018-05-24T00:10:11.959Z,0
2018-05-24T00:11:11.830Z,0
2018-05-24T00:12:11.961Z,0
2018-05-24T00:13:11.996Z,0
2018-05-24T00:14:11.951Z,0
2018-05-24T00:15:11.728Z,0
2018-05-24T00:16:12.178Z,0
2018-05-24T00:17:11.971Z,0
2018-05-24T00:18:12.224Z,0
2018-05-24T00:19:11.717Z,0
2018-05-24T00:20:11.961Z,0
2018-05-24T00:21:11.938Z,0
2018-05-24T00:22:11.908Z,0
2018-05-24T00:23:12.168Z,0
2018-05-24T00:24:12.185Z,0
2018-05-24T00:25:11.920Z,0
2018-05-24T00:26:11.680Z,0
2018-05-24T00:27:11.895Z,0
2018-05-24T00:28:12.199Z,0
2018-05-24T00:29:12.153Z,0
2018-05-24T00:30:12.197Z,0
2018-05-24T00:31:11.893Z,0
2018-05-24T00:32:11.898Z,0
2018-05-24T00:33:11.627Z,0
2018-05-24T00:34:11.856Z,0
2018-05-24T00:35:11.896Z,0
2018-05-24T00:36:12.148Z,0
2018-05-24T00:37:11.878Z,0
2018-05-24T00:38:11.857Z,0
2018-05-24T00:39:12.289Z,0
2018-05-24T00:40:12.033Z,0
2018-05-24T00:41:12.099Z,0
2018-05-24T00:42:11.614Z,0
2018-05-24T00:43:12.066Z,0
2018-05-24T00:44:11.843Z,0
2018-05-24T00:45:11.550Z,0
2018-05-24T00:46:11.594Z,0
2018-05-24T00:47:12.042Z,0
2018-05-24T00:48:12.097Z,0
2018-05-24T00:49:11.805Z,0
2018-05-24T00:50:11.826Z,0
2018-05-24T00:51:11.771Z,0
2018-05-24T00:52:12.027Z,0
2018-05-24T00:53:12.033Z,0
2018-05-24T00:54:11.806Z,0
2018-05-24T00:55:11.795Z,0
2018-05-24T00:56:11.509Z,0
2018-05-24T00:57:11.766Z,0
2018-05-24T00:58:12.044Z,0
2018-05-24T00:59:11.729Z,0
2018-05-24T01:00:11.763Z,0
2018-05-24T01:01:11.212Z,0
2018-05-24T01:02:12.028Z,0
2018-05-24T01:03:11.973Z,0
2018-05-24T01:04:11.769Z,0
2018-05-24T01:05:11.481Z,0
2018-05-24T01:06:11.739Z,0
2018-05-24T01:07:11.690Z,0
2018-05-24T01:08:11.720Z,0
2018-05-24T01:09:11.457Z,0
2018-05-24T01:10:11.727Z,0
2018-05-24T01:11:11.687Z,0
2018-05-24T01:12:11.714Z,0
2018-05-24T01:13:11.955Z,0
2018-05-24T01:14:11.723Z,0
2018-05-24T01:15:11.911Z,0
2018-05-24T01:16:11.428Z,0
2018-05-24T01:17:11.640Z,0
2018-05-24T01:18:11.935Z,0
2018-05-24T01:19:11.637Z,0
2018-05-24T01:20:11.426Z,0
2018-05-24T01:21:11.389Z,0
2018-05-24T01:22:11.917Z,0
2018-05-24T01:23:11.362Z,0
2018-05-24T01:24:11.647Z,0
2018-05-24T01:25:11.381Z,0
2018-05-24T01:26:11.619Z,0
2018-05-24T01:27:11.335Z,0
2018-05-24T01:28:11.623Z,0
2018-05-24T01:29:11.605Z,0
2018-05-24T01:30:11.378Z,0
2018-05-24T01:31:11.318Z,0
2018-05-24T01:32:11.868Z,0
2018-05-24T01:33:11.557Z,0
2018-05-24T01:34:11.860Z,0
2018-05-24T01:35:11.553Z,0
2018-05-24T01:36:11.348Z,0
2018-05-24T01:37:11.566Z,0
2018-05-24T01:38:11.326Z,0
2018-05-24T01:39:11.788Z,0
2018-05-24T01:40:11.541Z,0
2018-05-24T01:41:11.800Z,0
2018-05-24T01:42:11.556Z,0
2018-05-24T01:43:11.557Z,0
2018-05-24T01:44:11.527Z,0
2018-05-24T01:45:11.264Z,0
2018-05-24T01:46:11.770Z,0
2018-05-24T01:47:11.549Z,0
2018-05-24T01:48:11.494Z,0
2018-05-24T01:49:11.516Z,0
2018-05-24T01:50:11.792Z,0
2018-05-24T01:51:11.731Z,0
2018-05-24T01:52:11.787Z,0
2018-05-24T01:53:11.744Z,0
2018-05-24T01:54:11.762Z,0
2018-05-24T01:55:11.448Z,0
2018-05-24T01:56:11.708Z,0
2018-05-24T01:57:11.214Z,0
2018-05-24T01:58:11.478Z,0
2018-05-24T01:59:11.783Z,0
2018-05-24T02:00:11.441Z,0
2018-05-24T02:01:11.438Z,0
2018-05-24T02:02:11.653Z,0
2018-05-24T02:03:11.450Z,0
2018-05-24T02:04:11.428Z,0
2018-05-24T02:05:11.460Z,0
2018-05-24T02:06:11.150Z,0
2018-05-24T02:07:11.168Z,0
2018-05-24T02:08:10.880Z,0
2018-05-24T02:09:11.395Z,0
2018-05-24T02:10:11.632Z,0
2018-05-24T02:11:11.419Z,0
2018-05-24T02:12:11.646Z,0
2018-05-24T02:13:11.377Z,0
2018-05-24T02:14:11.341Z,0
2018-05-24T02:15:11.387Z,0
2018-05-24T02:16:11.608Z,0
2018-05-24T02:17:11.605Z,0
2018-05-24T02:18:11.310Z,0
2018-05-24T02:19:11.364Z,0
2018-05-24T02:20:11.571Z,0
2018-05-24T02:21:11.353Z,0
2018-05-24T02:22:11.567Z,0
2018-05-24T02:23:11.336Z,0
2018-05-24T02:24:11.438Z,0
2018-05-24T02:25:11.579Z,0
2018-05-24T02:26:11.019Z,0
2018-05-24T02:27:11.338Z,0
2018-05-24T02:28:11.312Z,0
2018-05-24T02:29:12.154Z,0
2018-05-24T02:30:11.266Z,0
2018-05-24T02:31:11.301Z,0
2018-05-24T02:32:11.025Z,0
2018-05-24T02:33:11.015Z,0
2018-05-24T02:34:11.037Z,0
2018-05-24T02:35:11.496Z,0
2018-05-24T02:36:12.712Z,0
2018-05-24T02:37:10.965Z,0
2018-05-24T02:38:11.527Z,0
2018-05-24T02:39:11.472Z,0
2018-05-24T02:40:11.552Z,0
2018-05-24T02:41:10.967Z,5
2018-05-24T02:42:10.946Z,5
2018-05-24T02:43:10.976Z,5
2018-05-24T02:44:10.955Z,5
2018-05-24T02:45:11.190Z,5
2018-05-24T02:46:10.670Z,5
2018-05-24T02:47:11.176Z,5
2018-05-24T02:48:11.186Z,5
2018-05-24T02:49:11.452Z,5
2018-05-24T02:50:11.461Z,10
2018-05-24T02:51:11.137Z,10
2018-05-24T02:52:11.166Z,10
2018-05-24T02:53:11.429Z,10
2018-05-24T02:54:10.881Z,10
2018-05-24T02:55:10.911Z,10
2018-05-24T02:56:11.108Z,15
2018-05-24T02:57:11.635Z,15
2018-05-24T02:58:11.355Z,15
2018-05-24T02:59:11.394Z,15
2018-05-24T03:00:11.129Z,20
2018-05-24T03:01:10.853Z,20
2018-05-24T03:02:11.089Z,20
2018-05-24T03:03:11.078Z,25
2018-05-24T03:04:11.383Z,25
2018-05-24T03:05:10.580Z,30
2018-05-24T03:06:11.354Z,30
2018-05-24T03:07:10.568Z,30
2018-05-24T03:08:11.301Z,35
2018-05-24T03:09:11.339Z,35
2018-05-24T03:10:10.803Z,35
2018-05-24T03:11:11.325Z,40
2018-05-24T03:12:10.754Z,40
2018-05-24T03:13:11.039Z,45
2018-05-24T03:14:11.003Z,45
2018-05-24T03:15:11.058Z,50
2018-05-24T03:16:10.770Z,55
2018-05-24T03:17:11.012Z,55
2018-05-24T03:18:10.470Z,60
2018-05-24T03:19:10.966Z,65
2018-05-24T03:20:11.006Z,70
2018-05-24T03:21:10.466Z,70
2018-05-24T03:22:11.261Z,75
2018-05-24T03:23:10.434Z,75
2018-05-24T03:24:10.982Z,80
2018-05-24T03:25:10.928Z,85
2018-05-24T03:26:10.720Z,90
2018-05-24T03:27:10.917Z,95
2018-05-24T03:28:10.961Z,95
2018-05-24T03:29:11.186Z,100
2018-05-24T03:30:10.970Z,105
2018-05-24T03:31:11.173Z,110
2018-05-24T03:32:10.678Z,110
2018-05-24T03:33:11.016Z,115
2018-05-24T03:34:10.906Z,120
2018-05-24T03:35:10.899Z,130
2018-05-24T03:36:10.904Z,145
2018-05-24T03:37:10.902Z,155
2018-05-24T03:38:10.913Z,165
2018-05-24T03:39:10.605Z,175
2018-05-24T03:40:10.891Z,185
2018-05-24T03:41:10.847Z,190
2018-05-24T03:42:10.880Z,190
2018-05-24T03:43:11.096Z,200
2018-05-24T03:44:11.145Z,205
2018-05-24T03:45:10.855Z,210
2018-05-24T03:46:10.606Z,205
2018-05-24T03:47:10.809Z,205
2018-05-24T03:48:10.830Z,210
2018-05-24T03:49:11.096Z,210
2018-05-24T03:50:10.853Z,215
2018-05-24T03:51:10.597Z,215
2018-05-24T03:52:11.156Z,220
2018-05-24T03:53:10.816Z,225
2018-05-24T03:54:10.540Z,230
2018-05-24T03:55:11.118Z,245
2018-05-24T03:56:11.064Z,255
2018-05-24T03:57:10.845Z,270
2018-05-24T03:58:11.082Z,280
2018-05-24T03:59:11.284Z,285
2018-05-24T04:00:10.324Z,300
2018-05-24T04:01:10.798Z,310
2018-05-24T04:02:10.555Z,305
2018-05-24T04:03:10.762Z,295
2018-05-24T04:04:11.039Z,295
2018-05-24T04:05:11.054Z,305
2018-05-24T04:06:10.808Z,305
2018-05-24T04:07:10.642Z,300
2018-05-24T04:08:10.515Z,305
2018-05-24T04:09:10.515Z,305
2018-05-24T04:10:10.499Z,315
2018-05-24T04:11:10.883Z,330
2018-05-24T04:12:11.262Z,330
2018-05-24T04:13:11.063Z,325
2018-05-24T04:14:10.816Z,320
2018-05-24T04:15:11.063Z,295
2018-05-24T04:16:10.745Z,265
2018-05-24T04:17:10.519Z,215
2018-05-24T04:18:10.754Z,225
2018-05-24T04:19:10.797Z,240
2018-05-24T04:20:10.776Z,245
2018-05-24T04:21:10.788Z,240
2018-05-24T04:22:11.008Z,250
2018-05-24T04:23:10.939Z,250
2018-05-24T04:24:11.004Z,260
2018-05-24T04:25:11.022Z,250
2018-05-24T04:26:10.224Z,235
2018-05-24T04:27:11.380Z,235
2018-05-24T04:28:11.001Z,245
2018-05-24T04:29:10.272Z,245
2018-05-24T04:30:11.252Z,255
2018-05-24T04:31:10.533Z,255
2018-05-24T04:32:10.977Z,250
2018-05-24T04:33:11.171Z,245
2018-05-24T04:34:10.745Z,250
2018-05-24T04:35:10.783Z,265
2018-05-24T04:36:10.306Z,270
2018-05-24T04:37:11.011Z,270
2018-05-24T04:38:10.733Z,270
2018-05-24T04:39:10.730Z,275
2018-05-24T04:40:10.783Z,275
2018-05-24T04:41:10.768Z,275
2018-05-24T04:42:10.770Z,280
2018-05-24T04:43:10.464Z,300
2018-05-24T04:44:11.009Z,320
2018-05-24T04:45:10.985Z,320
2018-05-24T04:46:10.240Z,325
2018-05-24T04:47:10.981Z,325
2018-05-24T04:48:11.032Z,310
2018-05-24T04:49:10.479Z,300
2018-05-24T04:50:10.975Z,295
2018-05-24T04:51:10.752Z,310
2018-05-24T04:52:11.125Z,310
2018-05-24T04:53:10.216Z,325
2018-05-24T04:54:10.705Z,315
2018-05-24T04:55:10.471Z,325
2018-05-24T04:56:10.212Z,355
2018-05-24T04:57:10.206Z,395
2018-05-24T04:58:10.740Z,350
2018-05-24T04:59:10.439Z,345
2018-05-24T05:00:10.458Z,355
2018-05-24T05:01:10.924Z,380
2018-05-24T05:02:10.731Z,465
2018-05-24T05:03:10.438Z,440
2018-05-24T05:04:10.212Z,400
2018-05-24T05:05:10.980Z,400
2018-05-24T05:06:10.717Z,450
2018-05-24T05:07:10.667Z,490
2018-05-24T05:08:10.938Z,545
2018-05-24T05:09:10.696Z,610
2018-05-24T05:10:11.017Z,590
2018-05-24T05:11:10.721Z,550
2018-05-24T05:12:10.680Z,500
2018-05-24T05:13:10.686Z,530
2018-05-24T05:14:10.510Z,615
2018-05-24T05:15:10.663Z,605
2018-05-24T05:16:10.704Z,540
2018-05-24T05:17:10.657Z,530
2018-05-24T05:18:10.190Z,470
2018-05-24T05:19:10.918Z,475
2018-05-24T05:20:10.456Z,590
2018-05-24T05:21:10.687Z,690
2018-05-24T05:22:10.454Z,750
2018-05-24T05:23:10.984Z,770
2018-05-24T05:24:10.682Z,755
2018-05-24T05:25:10.895Z,705
2018-05-24T05:26:10.454Z,590
2018-05-24T05:27:10.722Z,645
2018-05-24T05:28:10.680Z,800
2018-05-24T05:29:10.682Z,865
2018-05-24T05:30:10.409Z,865
2018-05-24T05:31:10.724Z,920
2018-05-24T05:32:10.750Z,905
2018-05-24T05:33:10.989Z,750
2018-05-24T05:34:10.695Z,695
2018-05-24T05:35:10.483Z,640
2018-05-24T05:36:10.684Z,710
2018-05-24T05:37:10.717Z,955
2018-05-24T05:38:11.038Z,990
2018-05-24T05:39:11.001Z,1020
2018-05-24T05:40:10.729Z,1035
2018-05-24T05:41:10.722Z,965
2018-05-24T05:42:10.748Z,925
2018-05-24T05:43:10.774Z,910
2018-05-24T05:44:10.477Z,950
2018-05-24T05:45:11.017Z,995
2018-05-24T05:46:10.732Z,895
2018-05-24T05:47:10.535Z,860
2018-05-24T05:48:10.757Z,950
2018-05-24T05:49:10.798Z,665
2018-05-24T05:50:10.756Z,485
2018-05-24T05:51:10.550Z,600
2018-05-24T05:52:10.659Z,1035
2018-05-24T05:53:11.058Z,1100
2018-05-24T05:54:11.045Z,1115
2018-05-24T05:55:10.572Z,910
2018-05-24T05:56:11.104Z,515
2018-05-24T05:57:10.829Z,530
2018-05-24T05:58:10.808Z,590
2018-05-24T05:59:10.558Z,605
2018-05-24T06:00:10.848Z,755
2018-05-24T06:01:10.843Z,890
2018-05-24T06:02:10.614Z,1070
2018-05-24T06:03:10.572Z,1050
2018-05-24T06:04:10.893Z,1025
2018-05-24T06:05:11.131Z,780
2018-05-24T06:06:10.866Z,950
2018-05-24T06:07:10.910Z,1015
2018-05-24T06:08:10.605Z,1060
2018-05-24T06:09:10.662Z,1135
2018-05-24T06:10:10.635Z,1155
2018-05-24T06:11:10.956Z,990
2018-05-24T06:12:11.000Z,875
2018-05-24T06:13:11.168Z,970
2018-05-24T06:14:11.159Z,1335
2018-05-24T06:15:10.909Z,1190
2018-05-24T06:16:10.939Z,1175
2018-05-24T06:17:10.430Z,1395
2018-05-24T06:18:10.672Z,1455
2018-05-24T06:19:10.992Z,1200
2018-05-24T06:20:10.951Z,1155
2018-05-24T06:21:10.493Z,1275
2018-05-24T06:22:11.230Z,1630
2018-05-24T06:23:11.298Z,1655
2018-05-24T06:24:10.980Z,1675
2018-05-24T06:25:10.770Z,1675
2018-05-24T06:26:11.298Z,1645
2018-05-24T06:27:11.310Z,1650
2018-05-24T06:28:11.073Z,1665
2018-05-24T06:29:11.118Z,1635
2018-05-24T06:30:11.294Z,1660
2018-05-24T06:31:10.630Z,1695
2018-05-24T06:32:11.071Z,1715
2018-05-24T06:33:11.077Z,1740
2018-05-24T06:35:11.074Z,1760
2018-05-24T06:36:11.393Z,1790
2018-05-24T06:37:10.963Z,1775
2018-05-24T06:38:10.908Z,1800
2018-05-24T06:39:11.381Z,1805
2018-05-24T06:40:11.455Z,1375
2018-05-24T06:41:11.125Z,1350
2018-05-24T06:42:10.924Z,1350
2018-05-24T06:43:11.164Z,1350
2018-05-24T06:44:11.010Z,1315
2018-05-24T06:45:11.232Z,1280
2018-05-24T06:46:11.492Z,1310
2018-05-24T06:47:11.464Z,1305
2018-05-24T06:48:11.215Z,1355
2018-05-24T06:49:10.745Z,1375
2018-05-24T06:50:11.265Z,1390
2018-05-24T06:51:23.777Z,1455
2018-05-24T06:52:11.263Z,1465
2018-05-24T06:53:11.300Z,1445
2018-05-24T06:54:11.534Z,1455
2018-05-24T06:55:10.819Z,1465
2018-05-24T06:56:11.319Z,1460
2018-05-24T06:57:11.405Z,1545
2018-05-24T06:58:11.608Z,1540
2018-05-24T06:59:11.352Z,1545
2018-05-24T07:00:11.589Z,1470
2018-05-24T07:01:11.647Z,1390
2018-05-24T07:03:11.658Z,1370
2018-05-24T07:04:11.123Z,1295
2018-05-24T07:05:11.188Z,1340
2018-05-24T07:06:11.594Z,1210
2018-05-24T07:07:11.681Z,980
2018-05-24T07:08:11.430Z,880
2018-05-24T07:09:11.492Z,825
2018-05-24T07:10:11.446Z,860
2018-05-24T07:11:12.253Z,880
2018-05-24T07:12:11.766Z,1020
2018-05-24T07:13:11.613Z,1120
2018-05-24T07:14:11.535Z,1115
2018-05-24T07:15:11.535Z,1300
2018-05-24T07:16:11.777Z,1285
2018-05-24T07:17:11.788Z,1520
2018-05-24T07:18:11.558Z,1430
2018-05-24T07:19:11.340Z,1475
2018-05-24T07:20:11.884Z,1405
2018-05-24T07:21:11.562Z,1515
2018-05-24T07:22:11.355Z,1475
2018-05-24T07:23:11.878Z,1590
2018-05-24T07:24:11.861Z,1730
2018-05-24T07:25:11.907Z,1720
2018-05-24T07:26:11.624Z,1705
2018-05-24T07:27:11.724Z,1695
2018-05-24T07:28:11.632Z,1715
2018-05-24T07:29:11.959Z,1700
2018-05-24T07:30:11.692Z,1725
2018-05-24T07:31:11.474Z,1735
2018-05-24T07:32:11.936Z,1745
2018-05-24T07:33:11.687Z,1760
2018-05-24T07:34:11.216Z,1785
2018-05-24T07:35:11.865Z,1775
2018-05-24T07:36:11.826Z,1785
2018-05-24T07:37:11.723Z,1795
2018-05-24T07:38:11.766Z,1810
2018-05-24T07:39:11.838Z,1830
2018-05-24T07:40:11.831Z,1795
2018-05-24T07:41:11.856Z,1780
2018-05-24T07:42:11.956Z,1800
2018-05-24T07:43:12.006Z,1870
2018-05-24T07:44:11.998Z,1850
2018-05-24T07:45:13.049Z,1910
2018-05-24T07:46:12.277Z,1890
2018-05-24T07:47:12.290Z,1780
2018-05-24T07:48:12.048Z,1905
2018-05-24T07:49:11.743Z,1965
2018-05-24T07:50:12.047Z,1950
2018-05-24T07:51:12.103Z,1870
2018-05-24T07:52:12.128Z,1830
2018-05-24T07:53:11.842Z,1955
2018-05-24T07:54:12.172Z,1940
2018-05-24T07:55:12.122Z,1910
2018-05-24T07:56:12.196Z,1890
2018-05-24T07:57:12.082Z,2010
2018-05-24T07:58:12.808Z,1960
2018-05-24T07:59:12.414Z,1950
2018-05-24T08:00:12.151Z,1990
2018-05-24T08:01:12.398Z,2020
2018-05-24T08:02:12.231Z,1990
2018-05-24T08:03:12.145Z,1955
2018-05-24T08:04:12.561Z,2040
2018-05-24T08:05:12.619Z,2090
2018-05-24T08:06:12.448Z,2085
2018-05-24T08:07:12.277Z,2060
2018-05-24T08:08:12.172Z,1975
2018-05-24T08:09:12.449Z,2040
2018-05-24T08:10:12.407Z,2070
2018-05-24T08:11:12.515Z,2080
2018-05-24T08:12:12.259Z,2130
2018-05-24T08:13:12.480Z,2150
2018-05-24T08:14:12.436Z,2105
2018-05-24T08:15:12.234Z,2100
2018-05-24T08:16:11.946Z,2030
2018-05-24T08:17:12.239Z,1990
2018-05-24T08:18:12.249Z,1765
2018-05-24T08:19:12.487Z,1730
2018-05-24T08:20:12.516Z,1775
2018-05-24T08:21:12.312Z,1915
2018-05-24T08:22:12.601Z,2045
2018-05-24T08:23:12.612Z,2085
2018-05-24T08:24:12.321Z,2175
2018-05-24T08:25:12.285Z,2215
2018-05-24T08:26:12.319Z,2160
2018-05-24T08:27:12.568Z,2175
2018-05-24T08:28:12.108Z,2150
2018-05-24T08:29:12.583Z,2195
2018-05-24T08:30:12.481Z,2220
2018-05-24T08:31:12.187Z,2235
2018-05-24T08:32:12.674Z,2215
2018-05-24T08:33:12.110Z,2065
2018-05-24T08:34:12.403Z,1830
2018-05-24T08:35:12.700Z,1755
2018-05-24T08:36:12.219Z,1930
2018-05-24T08:37:12.771Z,1965
2018-05-24T08:38:12.467Z,2005
2018-05-24T08:39:12.718Z,1895
2018-05-24T08:40:12.252Z,1880
2018-05-24T08:41:12.207Z,2010
2018-05-24T08:42:12.769Z,2200
2018-05-24T08:43:12.489Z,2235
2018-05-24T08:44:12.308Z,2135
2018-05-24T08:45:12.517Z,2075
2018-05-24T08:46:12.574Z,2055
2018-05-24T08:47:13.371Z,1860
2018-05-24T08:48:12.925Z,1235
2018-05-24T08:49:12.627Z,735
2018-05-24T08:50:12.645Z,675
2018-05-24T08:51:12.621Z,665
2018-05-24T08:52:12.666Z,665
2018-05-24T08:53:12.652Z,660
2018-05-24T08:54:12.625Z,655
2018-05-24T08:55:12.595Z,650
2018-05-24T08:56:12.921Z,655
2018-05-24T08:57:12.687Z,655
2018-05-24T08:58:12.930Z,655
2018-05-24T08:59:12.771Z,650
2018-05-24T09:00:12.434Z,650
2018-05-24T09:01:12.999Z,655
2018-05-24T09:02:12.928Z,660
2018-05-24T09:03:13.078Z,665
2018-05-24T09:04:12.701Z,665
2018-05-24T09:05:12.492Z,660
2018-05-24T09:06:12.723Z,660
2018-05-24T09:07:12.985Z,655
2018-05-24T09:08:13.008Z,650
2018-05-24T09:09:12.815Z,650
2018-05-24T09:10:12.740Z,645
2018-05-24T09:11:12.755Z,635
2018-05-24T09:12:12.507Z,630
2018-05-24T09:13:12.867Z,625
2018-05-24T09:14:13.016Z,630
2018-05-24T09:15:12.309Z,630
2018-05-24T09:16:13.039Z,625
2018-05-24T09:17:12.805Z,625
2018-05-24T09:18:13.028Z,625
2018-05-24T09:19:12.543Z,620
2018-05-24T09:20:13.758Z,615
2018-05-24T09:21:13.121Z,610
2018-05-24T09:22:12.853Z,600
2018-05-24T09:23:13.073Z,590
2018-05-24T09:24:12.811Z,585
2018-05-24T09:25:15.390Z,580
2018-05-24T09:26:13.101Z,580
2018-05-24T09:27:12.811Z,580
2018-05-24T09:28:16.889Z,580
2018-05-24T09:29:13.132Z,575
2018-05-24T09:30:12.841Z,570
2018-05-24T09:31:12.835Z,565
2018-05-24T09:32:12.862Z,555
2018-05-24T09:33:13.108Z,555
2018-05-24T09:34:12.851Z,545
2018-05-24T09:36:13.277Z,525
2018-05-24T09:37:12.671Z,520
2018-05-24T09:38:12.693Z,515
2018-05-24T09:39:13.223Z,510
2018-05-24T09:40:13.157Z,515
2018-05-24T09:41:13.142Z,510
2018-05-24T09:42:13.039Z,510
2018-05-24T09:43:12.860Z,505
2018-05-24T09:44:13.139Z,505
2018-05-24T09:45:25.632Z,490
2018-05-24T09:46:13.123Z,480
2018-05-24T09:47:13.148Z,475
2018-05-24T09:48:13.131Z,485
2018-05-24T09:49:12.666Z,500
2018-05-24T09:50:13.113Z,515
2018-05-24T09:51:12.393Z,525
2018-05-24T09:52:12.874Z,515
2018-05-24T09:53:13.160Z,470
2018-05-24T09:54:13.153Z,455
2018-05-24T09:55:26.138Z,445
2018-05-24T09:56:13.269Z,445
2018-05-24T09:57:12.945Z,445
2018-05-24T09:58:12.947Z,430
2018-05-24T09:59:12.960Z,420
2018-05-24T10:00:13.222Z,415
2018-05-24T10:01:12.667Z,430
2018-05-24T10:02:12.983Z,470
2018-05-24T10:03:12.937Z,505
2018-05-24T10:04:12.703Z,485
2018-05-24T10:05:12.998Z,490
2018-05-24T10:06:12.906Z,475
2018-05-24T10:07:13.386Z,480
2018-05-24T10:08:13.165Z,475
2018-05-24T10:09:13.202Z,485
2018-05-24T10:10:13.189Z,480
2018-05-24T10:11:12.708Z,490
2018-05-24T10:12:12.940Z,490
2018-05-24T10:13:13.202Z,420
2018-05-24T10:14:12.662Z,355
2018-05-24T10:15:25.405Z,410
2018-05-24T10:17:12.671Z,360
2018-05-24T10:18:12.720Z,340
2018-05-24T10:19:13.215Z,335
2018-05-24T10:20:13.253Z,355
2018-05-24T10:21:12.924Z,370
2018-05-24T10:22:12.697Z,345
2018-05-24T10:23:13.213Z,325
2018-05-24T10:24:13.273Z,330
2018-05-24T10:25:13.196Z,355
2018-05-24T10:26:12.715Z,390
2018-05-24T10:27:12.717Z,460
2018-05-24T10:28:13.004Z,480
2018-05-24T10:29:12.704Z,405
2018-05-24T10:30:12.756Z,325
2018-05-24T10:31:12.713Z,315
2018-05-24T10:32:13.032Z,325
2018-05-24T10:33:12.958Z,305
2018-05-24T10:34:13.013Z,295
2018-05-24T10:35:12.981Z,290
2018-05-24T10:36:12.750Z,300
2018-05-24T10:37:13.260Z,305
2018-05-24T10:38:13.019Z,310
2018-05-24T10:39:13.244Z,285
2018-05-24T10:40:13.382Z,265
2018-05-24T10:41:13.322Z,260
2018-05-24T10:42:12.735Z,270
2018-05-24T10:43:13.257Z,265
2018-05-24T10:44:12.992Z,265
2018-05-24T10:45:13.136Z,260
2018-05-24T10:46:12.996Z,265
2018-05-24T10:47:13.038Z,255
2018-05-24T10:48:13.249Z,270
2018-05-24T10:49:13.105Z,275
2018-05-24T10:50:13.300Z,280
2018-05-24T10:51:13.307Z,280
2018-05-24T10:52:13.047Z,280
2018-05-24T10:53:12.991Z,275
2018-05-24T10:54:12.887Z,265
2018-05-24T10:55:13.290Z,265
2018-05-24T10:56:13.645Z,260
2018-05-24T10:57:13.334Z,255
2018-05-24T10:58:13.018Z,255
2018-05-24T10:59:13.026Z,255
2018-05-24T11:00:13.249Z,250
2018-05-24T11:01:13.078Z,250
2018-05-24T11:02:12.761Z,260
2018-05-24T11:03:13.358Z,265
2018-05-24T11:04:13.268Z,265
2018-05-24T11:05:13.336Z,255
2018-05-24T11:06:12.480Z,250
2018-05-24T11:07:13.323Z,245
2018-05-24T11:08:13.033Z,245
2018-05-24T11:09:13.064Z,240
2018-05-24T11:10:13.044Z,240
2018-05-24T11:11:12.529Z,240
2018-05-24T11:12:13.272Z,240
2018-05-24T11:13:13.478Z,235
2018-05-24T11:14:12.564Z,235
2018-05-24T11:15:13.301Z,235
2018-05-24T11:16:12.556Z,235
2018-05-24T11:17:13.343Z,235
2018-05-24T11:18:13.294Z,235
2018-05-24T11:19:13.353Z,235
2018-05-24T11:20:13.298Z,235
2018-05-24T11:21:13.342Z,235
2018-05-24T11:22:13.348Z,235
2018-05-24T11:23:13.053Z,230
2018-05-24T11:24:12.811Z,230
2018-05-24T11:25:13.297Z,230
2018-05-24T11:26:12.857Z,230
2018-05-24T11:27:13.337Z,230
2018-05-24T11:28:13.066Z,230
2018-05-24T11:29:12.808Z,225
2018-05-24T11:30:13.338Z,225
2018-05-24T11:31:13.164Z,225
2018-05-24T11:32:13.509Z,225
2018-05-24T11:33:13.421Z,225
2018-05-24T11:34:12.878Z,225
2018-05-24T11:35:12.829Z,225
2018-05-24T11:36:13.612Z,220
2018-05-24T11:37:14.484Z,220
2018-05-24T11:38:13.373Z,220
2018-05-24T11:39:13.088Z,225
2018-05-24T11:40:13.144Z,225
2018-05-24T11:41:13.141Z,225
2018-05-24T11:42:13.090Z,220
2018-05-24T11:43:13.837Z,220
2018-05-24T11:44:13.369Z,225
2018-05-24T11:45:13.062Z,225
2018-05-24T11:46:13.650Z,225
2018-05-24T11:47:12.864Z,225
2018-05-24T11:48:13.171Z,220
2018-05-24T11:49:13.342Z,220
2018-05-24T11:50:13.372Z,220
2018-05-24T11:51:12.833Z,225
2018-05-24T11:52:13.277Z,225
2018-05-24T11:53:13.114Z,225
2018-05-24T11:54:13.542Z,225
2018-05-24T11:55:13.361Z,225
2018-05-24T11:56:13.108Z,225
2018-05-24T11:57:13.648Z,225
2018-05-24T11:58:12.892Z,230
2018-05-24T11:59:13.372Z,240
2018-05-24T12:00:13.120Z,250
2018-05-24T12:01:12.868Z,255
2018-05-24T12:02:13.368Z,250
2018-05-24T12:03:13.360Z,230
2018-05-24T12:04:13.343Z,220
2018-05-24T12:05:13.157Z,220
2018-05-24T12:06:13.135Z,225
2018-05-24T12:07:13.791Z,220
2018-05-24T12:08:13.381Z,225
2018-05-24T12:09:13.091Z,225
2018-05-24T12:10:13.406Z,225
2018-05-24T12:11:13.396Z,235
2018-05-24T12:12:12.914Z,245
2018-05-24T12:13:13.149Z,240
2018-05-24T12:14:13.365Z,245
2018-05-24T12:15:13.485Z,260
2018-05-24T12:16:13.752Z,265
2018-05-24T12:17:13.678Z,275
2018-05-24T12:18:13.447Z,290
2018-05-24T12:19:13.127Z,295
2018-05-24T12:20:13.395Z,285
2018-05-24T12:21:13.432Z,255
2018-05-24T12:22:13.391Z,235
2018-05-24T12:23:13.203Z,245
2018-05-24T12:24:12.898Z,250
2018-05-24T12:25:13.431Z,250
2018-05-24T12:26:13.122Z,255
2018-05-24T12:27:13.147Z,265
2018-05-24T12:28:13.425Z,260
2018-05-24T12:29:13.443Z,250
2018-05-24T12:30:13.425Z,240
2018-05-24T12:31:12.642Z,235
2018-05-24T12:32:13.128Z,230
2018-05-24T12:33:13.175Z,230
2018-05-24T12:34:13.140Z,230
2018-05-24T12:35:13.189Z,230
2018-05-24T12:36:12.884Z,230
2018-05-24T12:37:13.471Z,230
2018-05-24T12:38:12.889Z,230
2018-05-24T12:39:13.180Z,230
2018-05-24T12:40:13.167Z,230
2018-05-24T12:41:13.191Z,230
2018-05-24T12:42:13.439Z,235
2018-05-24T12:43:13.193Z,240
2018-05-24T12:44:13.164Z,240
2018-05-24T12:45:13.461Z,240
2018-05-24T12:46:12.943Z,240
2018-05-24T12:47:13.170Z,235
2018-05-24T12:48:13.425Z,235
2018-05-24T12:49:13.497Z,235
2018-05-24T12:50:13.182Z,235
2018-05-24T12:51:13.190Z,230
2018-05-24T12:52:13.606Z,240
2018-05-24T12:53:12.895Z,245
2018-05-24T12:54:13.460Z,255
2018-05-24T12:55:13.410Z,250
2018-05-24T12:56:13.463Z,250
2018-05-24T12:57:13.164Z,250
2018-05-24T12:58:13.205Z,245
2018-05-24T12:59:13.190Z,250
2018-05-24T13:00:13.188Z,255
2018-05-24T13:01:13.220Z,255
2018-05-24T13:02:12.965Z,260
2018-05-24T13:03:12.682Z,260
2018-05-24T13:04:13.683Z,270
2018-05-24T13:05:13.489Z,285
2018-05-24T13:06:12.941Z,315
2018-05-24T13:07:13.475Z,345
2018-05-24T13:08:13.507Z,355
2018-05-24T13:09:13.473Z,310
2018-05-24T13:10:13.252Z,285
2018-05-24T13:11:13.525Z,275
2018-05-24T13:12:13.447Z,260
2018-05-24T13:13:13.500Z,250
2018-05-24T13:14:12.669Z,250
2018-05-24T13:15:12.726Z,255
2018-05-24T13:16:13.452Z,250
2018-05-24T13:17:13.107Z,250
2018-05-24T13:18:12.979Z,250
2018-05-24T13:19:13.762Z,255
2018-05-24T13:20:13.198Z,270
2018-05-24T13:21:13.235Z,275
2018-05-24T13:22:12.999Z,255
2018-05-24T13:23:12.986Z,245
2018-05-24T13:24:13.268Z,250
2018-05-24T13:25:13.372Z,260
2018-05-24T13:26:12.996Z,265
2018-05-24T13:27:13.536Z,270
2018-05-24T13:28:13.218Z,285
2018-05-24T13:29:13.283Z,300
2018-05-24T13:30:12.949Z,320
2018-05-24T13:31:13.256Z,325
2018-05-24T13:32:13.514Z,320
2018-05-24T13:33:13.310Z,315
2018-05-24T13:34:13.273Z,295
2018-05-24T13:35:13.012Z,285
2018-05-24T13:36:13.510Z,270
2018-05-24T13:37:13.238Z,265
2018-05-24T13:38:13.525Z,255
2018-05-24T13:39:13.517Z,255
2018-05-24T13:40:12.519Z,255
2018-05-24T13:41:13.003Z,255
2018-05-24T13:42:13.535Z,250
2018-05-24T13:43:13.500Z,265
2018-05-24T13:44:13.043Z,260
2018-05-24T13:45:13.137Z,260
2018-05-24T13:46:13.313Z,265
2018-05-24T13:47:13.311Z,270
2018-05-24T13:48:13.287Z,270
2018-05-24T13:49:13.529Z,270
2018-05-24T13:50:13.798Z,275
2018-05-24T13:51:13.751Z,275
2018-05-24T13:52:13.268Z,280
2018-05-24T13:53:13.019Z,300
2018-05-24T13:54:13.051Z,310
2018-05-24T13:55:13.546Z,320
2018-05-24T13:56:13.577Z,335
2018-05-24T13:57:13.530Z,330